sensor_id;sensor_type;location;lat;lon;timestamp;pressure;altitude;pressure_sealevel;temperature;humidity
33625;BME280;19962;47.820;1.930;2023-05-02T00:02:07;101084.81;;;14.16;78.66
33625;BME280;19962;47.820;1.930;2023-05-02T00:04:33;101090.09;;;14.06;79.11
33625;BME280;19962;47.820;1.930;2023-05-02T00:06:59;101093.22;;;14.10;78.92
33625;BME280;19962;47.820;1.930;2023-05-02T00:09:25;101088.91;;;14.14;78.69
33625;BME280;19962;47.820;1.930;2023-05-02T00:11:52;101093.09;;;14.05;79.17
33625;BME280;19962;47.820;1.930;2023-05-02T00:14:18;101088.16;;;14.18;78.51
33625;BME280;19962;47.820;1.930;2023-05-02T00:16:44;101097.19;;;14.14;78.39
33625;BME280;19962;47.820;1.930;2023-05-02T00:19:10;101099.31;;;14.12;78.21
33625;BME280;19962;47.820;1.930;2023-05-02T00:21:36;101100.53;;;14.16;77.92
33625;BME280;19962;47.820;1.930;2023-05-02T00:24:02;101095.63;;;14.06;78.01
33625;BME280;19962;47.820;1.930;2023-05-02T00:26:28;101096.81;;;14.10;77.85
33625;BME280;19962;47.820;1.930;2023-05-02T00:28:54;101095.97;;;14.10;77.98
33625;BME280;19962;47.820;1.930;2023-05-02T00:31:20;101095.50;;;14.13;77.69
33625;BME280;19962;47.820;1.930;2023-05-02T00:33:46;101096.31;;;14.02;77.77
33625;BME280;19962;47.820;1.930;2023-05-02T00:36:14;101099.44;;;13.94;78.01
33625;BME280;19962;47.820;1.930;2023-05-02T00:38:40;101099.69;;;13.92;78.26
33625;BME280;19962;47.820;1.930;2023-05-02T00:41:06;101096.31;;;14.02;77.86
33625;BME280;19962;47.820;1.930;2023-05-02T00:43:32;101092.47;;;13.91;78.07
33625;BME280;19962;47.820;1.930;2023-05-02T00:45:59;101085.19;;;13.97;78.01
33625;BME280;19962;47.820;1.930;2023-05-02T00:48:25;101090.69;;;13.97;77.60
33625;BME280;19962;47.820;1.930;2023-05-02T00:50:52;101087.47;;;13.88;78.18
33625;BME280;19962;47.820;1.930;2023-05-02T00:53:18;101093.81;;;13.89;78.10
33625;BME280;19962;47.820;1.930;2023-05-02T00:55:44;101086.72;;;13.93;77.88
33625;BME280;19962;47.820;1.930;2023-05-02T00:58:12;101091.66;;;13.91;77.94
33625;BME280;19962;47.820;1.930;2023-05-02T01:03:20;101088.41;;;13.94;77.78
33625;BME280;19962;47.820;1.930;2023-05-02T01:12:23;101084.44;;;13.90;78.02
33625;BME280;19962;47.820;1.930;2023-05-02T01:14:53;101088.91;;;13.91;77.81
33625;BME280;19962;47.820;1.930;2023-05-02T01:17:23;101080.63;;;13.91;77.53
33625;BME280;19962;47.820;1.930;2023-05-02T01:19:57;101088.78;;;13.86;77.53
33625;BME280;19962;47.820;1.930;2023-05-02T01:22:25;101083.63;;;13.78;78.03
33625;BME280;19962;47.820;1.930;2023-05-02T01:27:42;101084.53;;;13.60;78.59
33625;BME280;19962;47.820;1.930;2023-05-02T01:30:14;101071.13;;;13.52;78.58
33625;BME280;19962;47.820;1.930;2023-05-02T01:32:44;101077.56;;;13.58;78.38
33625;BME280;19962;47.820;1.930;2023-05-02T01:35:14;101077.13;;;13.61;78.17
33625;BME280;19962;47.820;1.930;2023-05-02T01:37:45;101074.94;;;13.63;78.16
33625;BME280;19962;47.820;1.930;2023-05-02T01:40:16;101071.13;;;13.64;78.12
33625;BME280;19962;47.820;1.930;2023-05-02T01:42:44;101070.16;;;13.70;77.92
33625;BME280;19962;47.820;1.930;2023-05-02T01:45:12;101060.00;;;13.70;77.22
33625;BME280;19962;47.820;1.930;2023-05-02T01:47:40;101069.31;;;13.58;77.67
33625;BME280;19962;47.820;1.930;2023-05-02T01:50:10;101082.09;;;13.41;77.99
33625;BME280;19962;47.820;1.930;2023-05-02T01:52:37;101088.69;;;13.40;77.97
33625;BME280;19962;47.820;1.930;2023-05-02T01:55:06;101101.03;;;13.37;78.21
33625;BME280;19962;47.820;1.930;2023-05-02T01:57:35;101100.22;;;13.48;78.00
33625;BME280;19962;47.820;1.930;2023-05-02T02:00:02;101102.06;;;13.66;77.21
33625;BME280;19962;47.820;1.930;2023-05-02T02:02:30;101100.16;;;13.66;77.19
33625;BME280;19962;47.820;1.930;2023-05-02T02:04:57;101105.91;;;13.76;76.89
33625;BME280;19962;47.820;1.930;2023-05-02T02:07:24;101108.31;;;13.84;76.67
33625;BME280;19962;47.820;1.930;2023-05-02T02:09:51;101103.50;;;13.91;76.57
33625;BME280;19962;47.820;1.930;2023-05-02T02:12:22;101097.16;;;13.68;76.14
33625;BME280;19962;47.820;1.930;2023-05-02T02:17:39;101111.28;;;13.60;76.88
33625;BME280;19962;47.820;1.930;2023-05-02T02:20:09;101116.66;;;13.55;76.44
33625;BME280;19962;47.820;1.930;2023-05-02T02:22:41;101113.16;;;13.48;77.06
33625;BME280;19962;47.820;1.930;2023-05-02T02:25:14;101112.19;;;13.42;76.86
33625;BME280;19962;47.820;1.930;2023-05-02T02:27:41;101106.50;;;13.26;77.34
33625;BME280;19962;47.820;1.930;2023-05-02T02:30:10;101115.03;;;13.36;77.18
33625;BME280;19962;47.820;1.930;2023-05-02T02:32:37;101105.94;;;13.35;77.13
33625;BME280;19962;47.820;1.930;2023-05-02T02:35:03;101100.28;;;13.30;77.10
33625;BME280;19962;47.820;1.930;2023-05-02T02:37:36;101104.06;;;13.18;77.19
33625;BME280;19962;47.820;1.930;2023-05-02T02:53:45;101101.19;;;12.95;77.91
33625;BME280;19962;47.820;1.930;2023-05-02T02:56:19;101096.13;;;12.92;78.04
33625;BME280;19962;47.820;1.930;2023-05-02T02:59:25;101092.78;;;13.08;77.60
33625;BME280;19962;47.820;1.930;2023-05-02T03:02:08;101105.78;;;13.01;77.07
33625;BME280;19962;47.820;1.930;2023-05-02T03:04:39;101097.16;;;12.79;77.72
33625;BME280;19962;47.820;1.930;2023-05-02T03:07:07;101094.69;;;12.89;78.11
33625;BME280;19962;47.820;1.930;2023-05-02T03:09:41;101103.19;;;13.06;77.10
33625;BME280;19962;47.820;1.930;2023-05-02T03:12:07;101103.19;;;12.88;77.24
33625;BME280;19962;47.820;1.930;2023-05-02T03:14:33;101100.53;;;12.81;77.73
33625;BME280;19962;47.820;1.930;2023-05-02T03:17:00;101105.97;;;12.88;76.96
33625;BME280;19962;47.820;1.930;2023-05-02T03:19:26;101102.44;;;12.81;77.05
33625;BME280;19962;47.820;1.930;2023-05-02T03:21:52;101106.56;;;12.72;77.38
33625;BME280;19962;47.820;1.930;2023-05-02T03:24:18;101100.28;;;12.65;77.73
33625;BME280;19962;47.820;1.930;2023-05-02T03:26:44;101102.44;;;12.81;77.28
33625;BME280;19962;47.820;1.930;2023-05-02T03:29:13;101100.94;;;12.67;77.11
33625;BME280;19962;47.820;1.930;2023-05-02T03:31:39;101100.28;;;12.65;77.05
33625;BME280;19962;47.820;1.930;2023-05-02T03:34:05;101105.97;;;12.88;76.99
33625;BME280;19962;47.820;1.930;2023-05-02T03:36:31;101100.75;;;12.98;76.11
33625;BME280;19962;47.820;1.930;2023-05-02T03:38:57;101102.03;;;12.95;75.81
33625;BME280;19962;47.820;1.930;2023-05-02T03:41:23;101110.97;;;12.91;75.53
33625;BME280;19962;47.820;1.930;2023-05-02T03:43:50;101107.84;;;12.87;75.74
33625;BME280;19962;47.820;1.930;2023-05-02T03:46:16;101107.41;;;12.90;75.35
33625;BME280;19962;47.820;1.930;2023-05-02T03:48:42;101106.28;;;12.98;75.29
33625;BME280;19962;47.820;1.930;2023-05-02T03:51:11;101110.38;;;12.89;74.94
33625;BME280;19962;47.820;1.930;2023-05-02T03:53:37;101110.69;;;12.81;75.63
33625;BME280;19962;47.820;1.930;2023-05-02T03:56:03;101111.06;;;12.84;75.14
33625;BME280;19962;47.820;1.930;2023-05-02T03:58:30;101111.53;;;12.81;75.14
33625;BME280;19962;47.820;1.930;2023-05-02T04:00:56;101108.25;;;12.73;75.38
33625;BME280;19962;47.820;1.930;2023-05-02T04:03:22;101109.47;;;12.77;74.91
33625;BME280;19962;47.820;1.930;2023-05-02T04:05:48;101113.63;;;12.68;74.68
33625;BME280;19962;47.820;1.930;2023-05-02T04:08:16;101107.72;;;12.64;75.01
33625;BME280;19962;47.820;1.930;2023-05-02T04:10:43;101113.03;;;12.48;75.22
33625;BME280;19962;47.820;1.930;2023-05-02T04:13:09;101118.34;;;12.43;75.24
33625;BME280;19962;47.820;1.930;2023-05-02T04:15:35;101123.28;;;12.16;75.78
33625;BME280;19962;47.820;1.930;2023-05-02T04:18:01;101129.91;;;12.33;75.44
33625;BME280;19962;47.820;1.930;2023-05-02T04:20:27;101126.50;;;12.31;75.00
33625;BME280;19962;47.820;1.930;2023-05-02T04:22:53;101132.84;;;12.14;75.69
33625;BME280;19962;47.820;1.930;2023-05-02T04:25:20;101133.91;;;12.13;75.62
33625;BME280;19962;47.820;1.930;2023-05-02T04:27:46;101137.38;;;12.02;75.43
33625;BME280;19962;47.820;1.930;2023-05-02T04:30:12;101139.53;;;12.00;75.94
33625;BME280;19962;47.820;1.930;2023-05-02T04:32:39;101134.53;;;12.33;75.53
33625;BME280;19962;47.820;1.930;2023-05-02T04:35:05;101140.97;;;12.27;74.80
33625;BME280;19962;47.820;1.930;2023-05-02T04:37:31;101142.31;;;12.18;74.85
33625;BME280;19962;47.820;1.930;2023-05-02T04:39:57;101159.81;;;11.81;75.29
33625;BME280;19962;47.820;1.930;2023-05-02T04:42:24;101157.53;;;11.71;75.74
33625;BME280;19962;47.820;1.930;2023-05-02T04:44:50;101157.53;;;11.71;75.95
33625;BME280;19962;47.820;1.930;2023-05-02T04:47:16;101158.50;;;11.83;75.72
33625;BME280;19962;47.820;1.930;2023-05-02T04:49:42;101157.66;;;11.83;75.74
33625;BME280;19962;47.820;1.930;2023-05-02T04:52:09;101166.06;;;11.88;75.15
33625;BME280;19962;47.820;1.930;2023-05-02T04:54:36;101176.72;;;11.78;75.72
33625;BME280;19962;47.820;1.930;2023-05-02T04:57:02;101176.47;;;11.86;75.59
33625;BME280;19962;47.820;1.930;2023-05-02T04:59:31;101170.00;;;11.98;75.23
33625;BME280;19962;47.820;1.930;2023-05-02T05:01:57;101171.63;;;12.06;75.07
33625;BME280;19962;47.820;1.930;2023-05-02T05:04:24;101177.81;;;12.26;74.21
33625;BME280;19962;47.820;1.930;2023-05-02T05:06:50;101184.88;;;12.40;73.86
33625;BME280;19962;47.820;1.930;2023-05-02T05:09:16;101183.22;;;12.57;73.51
33625;BME280;19962;47.820;1.930;2023-05-02T05:11:42;101191.13;;;12.47;73.33
33625;BME280;19962;47.820;1.930;2023-05-02T05:14:10;101192.34;;;12.51;73.21
33625;BME280;19962;47.820;1.930;2023-05-02T05:16:37;101197.41;;;12.54;73.19
33625;BME280;19962;47.820;1.930;2023-05-02T05:19:03;101198.78;;;12.45;72.81
33625;BME280;19962;47.820;1.930;2023-05-02T05:21:30;101204.25;;;12.27;73.76
33625;BME280;19962;47.820;1.930;2023-05-02T05:23:56;101210.47;;;12.16;73.69
33625;BME280;19962;47.820;1.930;2023-05-02T05:26:22;101219.47;;;12.05;74.32
33625;BME280;19962;47.820;1.930;2023-05-02T05:28:50;101215.31;;;11.96;75.30
33625;BME280;19962;47.820;1.930;2023-05-02T05:31:16;101209.13;;;12.00;75.28
33625;BME280;19962;47.820;1.930;2023-05-02T05:33:42;101208.91;;;12.02;75.23
33625;BME280;19962;47.820;1.930;2023-05-02T05:36:13;101211.31;;;11.92;76.36
33625;BME280;19962;47.820;1.930;2023-05-02T05:38:42;101201.56;;;12.20;75.42
33625;BME280;19962;47.820;1.930;2023-05-02T05:41:08;101202.25;;;12.34;74.77
33625;BME280;19962;47.820;1.930;2023-05-02T05:43:35;101211.66;;;12.26;75.32
33625;BME280;19962;47.820;1.930;2023-05-02T05:46:02;101211.25;;;12.23;75.53
33625;BME280;19962;47.820;1.930;2023-05-02T05:48:28;101215.63;;;12.30;75.71
33625;BME280;19962;47.820;1.930;2023-05-02T05:50:54;101218.63;;;12.47;75.25
33625;BME280;19962;47.820;1.930;2023-05-02T05:53:20;101221.56;;;12.52;74.97
33625;BME280;19962;47.820;1.930;2023-05-02T05:55:47;101220.75;;;12.69;74.48
33625;BME280;19962;47.820;1.930;2023-05-02T05:58:13;101217.47;;;12.61;74.92
33625;BME280;19962;47.820;1.930;2023-05-02T06:00:39;101221.09;;;12.55;75.25
33625;BME280;19962;47.820;1.930;2023-05-02T06:03:06;101228.28;;;12.56;75.79
33625;BME280;19962;47.820;1.930;2023-05-02T06:05:33;101226.63;;;12.73;75.44
33625;BME280;19962;47.820;1.930;2023-05-02T06:07:59;101236.38;;;12.93;74.98
33625;BME280;19962;47.820;1.930;2023-05-02T06:10:25;101236.09;;;13.01;74.60
33625;BME280;19962;47.820;1.930;2023-05-02T06:12:51;101234.41;;;13.18;74.46
33625;BME280;19962;47.820;1.930;2023-05-02T06:15:18;101235.72;;;13.16;74.06
33625;BME280;19962;47.820;1.930;2023-05-02T06:17:44;101240.94;;;13.06;74.56
33625;BME280;19962;47.820;1.930;2023-05-02T06:20:10;101238.31;;;13.11;74.79
33625;BME280;19962;47.820;1.930;2023-05-02T06:22:36;101240.16;;;13.17;74.49
33625;BME280;19962;47.820;1.930;2023-05-02T06:25:04;101246.50;;;13.17;74.99
33625;BME280;19962;47.820;1.930;2023-05-02T06:27:31;101241.81;;;13.18;75.15
33625;BME280;19962;47.820;1.930;2023-05-02T06:29:57;101247.41;;;13.29;74.98
33625;BME280;19962;47.820;1.930;2023-05-02T06:32:23;101241.97;;;13.23;75.73
33625;BME280;19962;47.820;1.930;2023-05-02T06:34:49;101242.81;;;13.23;76.16
33625;BME280;19962;47.820;1.930;2023-05-02T06:37:15;101241.88;;;13.29;76.31
33625;BME280;19962;47.820;1.930;2023-05-02T06:39:41;101253.53;;;13.31;77.00
33625;BME280;19962;47.820;1.930;2023-05-02T06:42:07;101253.78;;;13.30;78.27
33625;BME280;19962;47.820;1.930;2023-05-02T06:44:33;101255.13;;;13.39;78.01
33625;BME280;19962;47.820;1.930;2023-05-02T06:46:59;101265.75;;;13.53;77.75
33625;BME280;19962;47.820;1.930;2023-05-02T06:49:26;101265.69;;;13.60;77.27
33625;BME280;19962;47.820;1.930;2023-05-02T06:51:52;101271.72;;;13.50;78.26
33625;BME280;19962;47.820;1.930;2023-05-02T06:54:18;101268.28;;;13.55;78.72
33625;BME280;19962;47.820;1.930;2023-05-02T06:56:44;101268.28;;;13.55;79.14
33625;BME280;19962;47.820;1.930;2023-05-02T06:59:10;101272.19;;;13.47;80.06
33625;BME280;19962;47.820;1.930;2023-05-02T07:01:36;101280.94;;;13.44;80.52
33625;BME280;19962;47.820;1.930;2023-05-02T07:04:02;101275.84;;;13.59;80.19
33625;BME280;19962;47.820;1.930;2023-05-02T07:06:30;101277.31;;;13.62;80.11
33625;BME280;19962;47.820;1.930;2023-05-02T07:08:57;101282.78;;;13.80;79.05
33625;BME280;19962;47.820;1.930;2023-05-02T07:11:23;101269.41;;;13.95;78.49
33625;BME280;19962;47.820;1.930;2023-05-02T07:13:50;101274.22;;;13.99;78.49
33625;BME280;19962;47.820;1.930;2023-05-02T07:16:16;101266.47;;;14.08;77.81
33625;BME280;19962;47.820;1.930;2023-05-02T07:18:42;101272.81;;;14.20;77.67
33625;BME280;19962;47.820;1.930;2023-05-02T07:21:11;101269.41;;;14.24;77.53
33625;BME280;19962;47.820;1.930;2023-05-02T07:23:37;101267.13;;;14.33;77.58
33625;BME280;19962;47.820;1.930;2023-05-02T07:26:03;101269.31;;;14.31;78.98
33625;BME280;19962;47.820;1.930;2023-05-02T07:28:32;101259.47;;;14.35;79.95
33625;BME280;19962;47.820;1.930;2023-05-02T07:30:58;101263.16;;;14.40;80.52
33625;BME280;19962;47.820;1.930;2023-05-02T07:33:25;101269.66;;;14.46;80.72
33625;BME280;19962;47.820;1.930;2023-05-02T07:35:51;101261.41;;;14.57;80.15
33625;BME280;19962;47.820;1.930;2023-05-02T07:38:17;101253.00;;;14.64;80.13
33625;BME280;19962;47.820;1.930;2023-05-02T07:40:44;101258.75;;;14.74;80.20
33625;BME280;19962;47.820;1.930;2023-05-02T07:43:12;101258.41;;;14.82;80.32
33625;BME280;19962;47.820;1.930;2023-05-02T07:45:38;101266.78;;;14.87;80.68
33625;BME280;19962;47.820;1.930;2023-05-02T07:48:04;101266.09;;;14.80;80.33
33625;BME280;19962;47.820;1.930;2023-05-02T07:50:30;101257.31;;;14.83;80.92
33625;BME280;19962;47.820;1.930;2023-05-02T07:52:56;101263.44;;;14.85;81.10
33625;BME280;19962;47.820;1.930;2023-05-02T07:55:22;101264.03;;;14.98;81.30
33625;BME280;19962;47.820;1.930;2023-05-02T07:57:51;101266.41;;;15.06;81.18
33625;BME280;19962;47.820;1.930;2023-05-02T08:00:17;101267.38;;;15.12;81.13
33625;BME280;19962;47.820;1.930;2023-05-02T08:02:44;101269.78;;;15.20;81.34
33625;BME280;19962;47.820;1.930;2023-05-02T08:05:11;101271.72;;;15.08;81.83
33625;BME280;19962;47.820;1.930;2023-05-02T08:07:37;101269.78;;;15.20;81.36
33625;BME280;19962;47.820;1.930;2023-05-02T08:10:04;101269.75;;;15.31;81.42
33625;BME280;19962;47.820;1.930;2023-05-02T08:12:30;101268.94;;;15.19;81.40
33625;BME280;19962;47.820;1.930;2023-05-02T08:14:56;101268.44;;;15.22;81.39
33625;BME280;19962;47.820;1.930;2023-05-02T08:17:22;101266.38;;;15.29;81.42
33625;BME280;19962;47.820;1.930;2023-05-02T08:19:48;101273.00;;;15.40;81.31
33625;BME280;19962;47.820;1.930;2023-05-02T08:22:15;101275.03;;;15.44;81.81
33625;BME280;19962;47.820;1.930;2023-05-02T08:24:41;101283.09;;;15.46;81.78
33625;BME280;19962;47.820;1.930;2023-05-02T08:27:07;101278.63;;;15.45;82.41
33625;BME280;19962;47.820;1.930;2023-05-02T08:29:33;101282.34;;;15.50;81.82
33625;BME280;19962;47.820;1.930;2023-05-02T08:31:59;101282.56;;;15.60;80.82
33625;BME280;19962;47.820;1.930;2023-05-02T08:34:25;101282.28;;;15.73;80.55
33625;BME280;19962;47.820;1.930;2023-05-02T08:36:51;101292.72;;;15.83;80.45
33625;BME280;19962;47.820;1.930;2023-05-02T08:39:17;101285.50;;;15.82;80.14
33625;BME280;19962;47.820;1.930;2023-05-02T08:41:44;101284.88;;;15.80;80.33
33625;BME280;19962;47.820;1.930;2023-05-02T08:44:11;101289.00;;;15.77;79.71
33625;BME280;19962;47.820;1.930;2023-05-02T08:46:40;101288.31;;;15.70;79.05
33625;BME280;19962;47.820;1.930;2023-05-02T08:49:09;101285.78;;;15.69;78.87
33625;BME280;19962;47.820;1.930;2023-05-02T08:51:36;101289.63;;;15.68;78.78
33625;BME280;19962;47.820;1.930;2023-05-02T08:54:02;101287.50;;;15.58;78.62
33625;BME280;19962;47.820;1.930;2023-05-02T08:56:29;101293.00;;;15.70;78.03
33625;BME280;19962;47.820;1.930;2023-05-02T08:58:55;101285.50;;;15.82;77.73
33625;BME280;19962;47.820;1.930;2023-05-02T09:01:29;101281.63;;;15.83;77.15
33625;BME280;19962;47.820;1.930;2023-05-02T09:03:55;101294.38;;;15.84;77.01
33625;BME280;19962;47.820;1.930;2023-05-02T09:06:23;101302.19;;;15.87;77.22
33625;BME280;19962;47.820;1.930;2023-05-02T09:08:50;101297.94;;;15.96;76.68
33625;BME280;19962;47.820;1.930;2023-05-02T09:11:20;101297.44;;;15.99;76.57
33625;BME280;19962;47.820;1.930;2023-05-02T09:13:47;101304.06;;;15.98;76.17
33625;BME280;19962;47.820;1.930;2023-05-02T09:16:21;101297.66;;;16.09;75.65
33625;BME280;19962;47.820;1.930;2023-05-02T09:18:52;101295.16;;;16.24;74.74
33625;BME280;19962;47.820;1.930;2023-05-02T09:21:23;101302.19;;;16.31;74.17
33625;BME280;19962;47.820;1.930;2023-05-02T09:23:54;101305.78;;;16.43;73.75
33625;BME280;19962;47.820;1.930;2023-05-02T09:26:24;101298.13;;;16.50;74.05
33625;BME280;19962;47.820;1.930;2023-05-02T09:28:54;101295.47;;;16.55;73.83
33625;BME280;19962;47.820;1.930;2023-05-02T09:31:22;101297.81;;;16.63;73.51
33625;BME280;19962;47.820;1.930;2023-05-02T09:33:51;101297.91;;;16.68;73.52
33625;BME280;19962;47.820;1.930;2023-05-02T09:36:19;101295.72;;;16.54;73.80
33625;BME280;19962;47.820;1.930;2023-05-02T09:38:47;101298.56;;;16.59;73.86
33625;BME280;19962;47.820;1.930;2023-05-02T09:41:14;101288.81;;;16.73;73.18
33625;BME280;19962;47.820;1.930;2023-05-02T09:43:40;101285.97;;;16.84;73.08
33625;BME280;19962;47.820;1.930;2023-05-02T09:46:10;101289.91;;;16.88;73.02
33625;BME280;19962;47.820;1.930;2023-05-02T09:48:52;101294.88;;;16.86;72.04
33625;BME280;19962;47.820;1.930;2023-05-02T09:51:20;101298.53;;;16.92;72.29
33625;BME280;19962;47.820;1.930;2023-05-02T09:53:47;101295.03;;;16.96;72.05
33625;BME280;19962;47.820;1.930;2023-05-02T09:56:13;101308.03;;;16.96;72.03
33625;BME280;19962;47.820;1.930;2023-05-02T09:58:40;101300.47;;;17.08;71.71
33625;BME280;19962;47.820;1.930;2023-05-02T10:01:06;101295.16;;;17.06;71.12
33625;BME280;19962;47.820;1.930;2023-05-02T10:03:36;101292.00;;;16.98;71.05
33625;BME280;19962;47.820;1.930;2023-05-02T10:06:04;101290.97;;;17.04;71.44
33625;BME280;19962;47.820;1.930;2023-05-02T10:08:33;101284.28;;;17.21;71.29
33625;BME280;19962;47.820;1.930;2023-05-02T10:11:01;101288.03;;;17.32;70.19
33625;BME280;19962;47.820;1.930;2023-05-02T10:13:32;101288.97;;;17.37;70.20
33625;BME280;19962;47.820;1.930;2023-05-02T10:16:04;101288.28;;;17.47;69.80
33625;BME280;19962;47.820;1.930;2023-05-02T10:19:32;101292.59;;;17.38;68.69
33625;BME280;19962;47.820;1.930;2023-05-02T10:21:40;101287.03;;;17.38;68.85
33625;BME280;19962;47.820;1.930;2023-05-02T10:24:08;101297.44;;;17.48;69.28
33625;BME280;19962;47.820;1.930;2023-05-02T10:26:37;101283.91;;;17.51;69.09
33625;BME280;19962;47.820;1.930;2023-05-02T10:29:07;101284.78;;;17.57;69.41
33625;BME280;19962;47.820;1.930;2023-05-02T10:31:33;101282.28;;;17.55;68.81
33625;BME280;19962;47.820;1.930;2023-05-02T10:34:00;101282.94;;;17.62;67.85
33625;BME280;19962;47.820;1.930;2023-05-02T10:36:28;101275.75;;;17.66;67.57
33625;BME280;19962;47.820;1.930;2023-05-02T10:38:57;101278.13;;;17.79;67.53
33625;BME280;19962;47.820;1.930;2023-05-02T10:41:28;101278.56;;;17.93;67.05
33625;BME280;19962;47.820;1.930;2023-05-02T10:43:55;101275.56;;;17.99;65.71
33625;BME280;19962;47.820;1.930;2023-05-02T10:46:33;101281.19;;;18.04;65.09
33625;BME280;19962;47.820;1.930;2023-05-02T10:49:07;101270.72;;;18.11;65.18
33625;BME280;19962;47.820;1.930;2023-05-02T10:51:35;101271.88;;;18.15;65.26
33625;BME280;19962;47.820;1.930;2023-05-02T10:54:22;101265.25;;;18.21;64.01
33625;BME280;19962;47.820;1.930;2023-05-02T10:59:38;101274.19;;;18.23;63.46
33625;BME280;19962;47.820;1.930;2023-05-02T11:05:08;101272.81;;;17.99;62.87
33625;BME280;19962;47.820;1.930;2023-05-02T11:07:35;101261.28;;;18.12;63.69
33625;BME280;19962;47.820;1.930;2023-05-02T11:15:13;101251.41;;;18.26;63.27
33625;BME280;19962;47.820;1.930;2023-05-02T11:18:02;101246.41;;;18.23;62.24
33625;BME280;19962;47.820;1.930;2023-05-02T11:20:29;101246.28;;;18.40;62.28
33625;BME280;19962;47.820;1.930;2023-05-02T11:22:58;101252.22;;;18.53;61.51
33625;BME280;19962;47.820;1.930;2023-05-02T11:25:38;101248.66;;;18.58;60.75
33625;BME280;19962;47.820;1.930;2023-05-02T11:28:06;101250.13;;;18.65;61.08
33625;BME280;19962;47.820;1.930;2023-05-02T11:30:37;101251.03;;;18.76;60.82
33625;BME280;19962;47.820;1.930;2023-05-02T11:35:31;101235.53;;;18.85;59.42
33625;BME280;19962;47.820;1.930;2023-05-02T11:38:01;101237.50;;;18.89;58.80
33625;BME280;19962;47.820;1.930;2023-05-02T11:40:31;101240.81;;;18.86;58.68
33625;BME280;19962;47.820;1.930;2023-05-02T11:42:58;101246.41;;;18.91;58.71
33625;BME280;19962;47.820;1.930;2023-05-02T11:45:35;101237.53;;;18.94;58.11
33625;BME280;19962;47.820;1.930;2023-05-02T11:48:05;101246.66;;;18.90;58.59
33625;BME280;19962;47.820;1.930;2023-05-02T11:50:46;101253.09;;;18.90;58.29
33625;BME280;19962;47.820;1.930;2023-05-02T11:53:14;101253.34;;;18.89;57.99
33625;BME280;19962;47.820;1.930;2023-05-02T11:56:06;101254.13;;;18.84;57.24
33625;BME280;19962;47.820;1.930;2023-05-02T11:58:33;101244.75;;;18.90;57.15
33625;BME280;19962;47.820;1.930;2023-05-02T12:01:12;101237.53;;;18.94;56.45
33625;BME280;19962;47.820;1.930;2023-05-02T12:03:39;101242.78;;;18.91;56.56
33625;BME280;19962;47.820;1.930;2023-05-02T12:06:12;101238.13;;;19.01;56.50
33625;BME280;19962;47.820;1.930;2023-05-02T12:08:39;101251.78;;;19.08;55.78
33625;BME280;19962;47.820;1.930;2023-05-02T12:11:06;101251.53;;;19.09;55.83
33625;BME280;19962;47.820;1.930;2023-05-02T12:13:32;101252.63;;;19.03;55.79
33625;BME280;19962;47.820;1.930;2023-05-02T12:15:59;101261.22;;;19.02;55.83
33625;BME280;19962;47.820;1.930;2023-05-02T12:18:26;101248.22;;;19.12;55.95
33625;BME280;19962;47.820;1.930;2023-05-02T12:20:53;101243.81;;;19.21;55.85
33625;BME280;19962;47.820;1.930;2023-05-02T12:23:21;101252.78;;;19.28;55.85
33625;BME280;19962;47.820;1.930;2023-05-02T12:25:48;101255.28;;;19.30;55.55
33625;BME280;19962;47.820;1.930;2023-05-02T12:28:17;101250.59;;;19.35;54.80
33625;BME280;19962;47.820;1.930;2023-05-02T12:30:49;101249.50;;;19.41;54.76
33625;BME280;19962;47.820;1.930;2023-05-02T12:33:17;101253.44;;;19.55;55.06
33625;BME280;19962;47.820;1.930;2023-05-02T12:35:43;101252.41;;;19.66;54.89
33625;BME280;19962;47.820;1.930;2023-05-02T12:38:15;101250.16;;;19.73;54.94
33625;BME280;19962;47.820;1.930;2023-05-02T12:40:49;101244.91;;;19.72;53.06
33625;BME280;19962;47.820;1.930;2023-05-02T12:43:16;101242.38;;;19.65;53.54
33625;BME280;19962;47.820;1.930;2023-05-02T12:45:43;101245.69;;;19.62;53.91
33625;BME280;19962;47.820;1.930;2023-05-02T12:48:26;101243.72;;;19.58;53.42
33625;BME280;19962;47.820;1.930;2023-05-02T12:50:53;101240.38;;;19.51;53.97
33625;BME280;19962;47.820;1.930;2023-05-02T12:56:05;101241.00;;;19.16;53.60
33625;BME280;19962;47.820;1.930;2023-05-02T12:58:40;101241.13;;;18.95;50.73
33625;BME280;19962;47.820;1.930;2023-05-02T13:01:07;101253.81;;;19.22;52.68
33625;BME280;19962;47.820;1.930;2023-05-02T13:03:34;101246.44;;;19.43;52.13
33625;BME280;19962;47.820;1.930;2023-05-02T13:06:00;101252.91;;;19.53;51.47
33625;BME280;19962;47.820;1.930;2023-05-02T13:08:26;101254.00;;;19.52;51.43
33625;BME280;19962;47.820;1.930;2023-05-02T13:10:52;101264.88;;;19.54;51.46
33625;BME280;19962;47.820;1.930;2023-05-02T13:13:18;101267.66;;;19.54;51.63
33625;BME280;19962;47.820;1.930;2023-05-02T13:15:45;101258.19;;;19.55;51.83
33625;BME280;19962;47.820;1.930;2023-05-02T13:18:11;101260.38;;;19.48;51.96
33625;BME280;19962;47.820;1.930;2023-05-02T13:20:37;101258.47;;;19.58;52.15
33625;BME280;19962;47.820;1.930;2023-05-02T13:23:03;101252.13;;;19.68;51.90
33625;BME280;19962;47.820;1.930;2023-05-02T13:25:29;101251.00;;;19.69;52.16
33625;BME280;19962;47.820;1.930;2023-05-02T13:27:57;101252.69;;;19.75;51.89
33625;BME280;19962;47.820;1.930;2023-05-02T13:30:23;101253.28;;;19.77;51.50
33625;BME280;19962;47.820;1.930;2023-05-02T13:32:49;101260.50;;;19.78;50.81
33625;BME280;19962;47.820;1.930;2023-05-02T13:35:15;101250.50;;;19.82;50.58
33625;BME280;19962;47.820;1.930;2023-05-02T13:37:41;101254.13;;;19.87;50.40
33625;BME280;19962;47.820;1.930;2023-05-02T13:40:08;101241.88;;;19.83;50.22